This is the latest recevied weather packets stored in our database for station/object IU1DOF-3. If no packets are shown the sender has not sent any weather packets the latest 10 day(s).
| Time | Temp. | Humidity | Pressure | Rain* | Wind** | Luminosity | Snow |
|---|---|---|---|---|---|---|---|
| 1777506914 | 12.22° C | 90% | 1017.1 hPa | 0 mm | - | - | - |
| 1777506290 | 12.22° C | 88% | 1017.1 hPa | 0 mm | - | - | - |
| 1777505680 | 12.22° C | 88% | 1017.2 hPa | 0 mm | - | - | - |
| 1777505059 | 11.67° C | 90% | 1017 hPa | 0 mm | - | - | - |
| 1777504434 | 11.67° C | 91% | 1016.9 hPa | 0 mm | - | - | - |
| 1777503820 | 12.22° C | 90% | 1017.1 hPa | 0 mm | - | - | - |
| 1777503203 | 11.67° C | 89% | 1017 hPa | 0 mm | - | - | - |
| 1777502578 | 11.67° C | 89% | 1016.7 hPa | 0 mm | - | - | - |
| 1777501960 | 11.67° C | 90% | 1016.9 hPa | 0 mm | - | - | - |
| 1777501346 | 11.67° C | 91% | 1017 hPa | 0 mm | - | - | - |
| 1777500722 | 11.67° C | 91% | 1016.7 hPa | 0 mm | - | - | - |
| 1777500098 | 11.67° C | 89% | 1016.6 hPa | 0 mm | - | - | - |
| 1777499474 | 11.11° C | 92% | 1016.5 hPa | 0 mm | - | - | - |
| 1777498850 | 11.67° C | 88% | 1016.5 hPa | 0 mm | - | - | - |
| 1777498241 | 11.11° C | 89% | 1016.6 hPa | 0 mm | - | - | - |
| 1777497619 | 11.11° C | 88% | 1016.7 hPa | 0 mm | - | - | - |
| 1777496994 | 11.11° C | 89% | 1016.7 hPa | 0 mm | - | - | - |
| 1777496380 | 11.11° C | 88% | 1016.1 hPa | 0 mm | - | - | - |
| 1777495762 | 11.67° C | 87% | 1016.1 hPa | 0 mm | - | - | - |
| 1777495138 | 11.67° C | 87% | 1016 hPa | 0 mm | - | - | - |
| 1777494520 | 11.67° C | 87% | 1016 hPa | 0 mm | - | - | - |
| 1777493907 | 11.67° C | 87% | 1015.7 hPa | 0 mm | - | - | - |
| 1777493282 | 12.22° C | 87% | 1015.8 hPa | 0 mm | - | - | - |
| 1777492658 | 12.22° C | 86% | 1015.7 hPa | 0 mm | - | - | - |
| 1777492034 | 12.78° C | 86% | 1015.5 hPa | 0 mm | - | - | - |
* Rain latest hour (hover to see other rain measurements)
** Current wind speed in m/s (hover to see current wind gust speed)